LIRF/FCO METAR and TAF weather

Enter ICAO airport designator
Station Type Date Time Source
LIRF METAR 2020/04/05 15:20 UTC NOAA

LIRF 051520Z 29010KT CAVOK 20/05 Q1016 NOSIG


Station Type Date Time Source
LIRF Decoded METAR 2020/04/05 15:20 UTC NOAA

Roma Fiumicino, Italy (LIRF) 41-48N 012-14E 3M
Apr 05, 2020 - 11:20 AM EDT / 2020.04.05 1520 UTC
Wind: from the WNW (290 degrees) at 12 MPH (10 KT):0
Visibility: greater than 7 mile(s):0
Temperature: 68 F (20 C)
Dew Point: 41 F (5 C)
Relative Humidity: 37%
Pressure (altimeter): 30.00 in. Hg (1016 hPa)
ob: LIRF 051520Z 29010KT CAVOK 20/05 Q1016 NOSIG
cycle: 15

Station Type Date Time Source
LIRF TAF 2020/04/05 12:26 UTC NOAA

TAF LIRF 051100Z 0512/0618 04013KT CAVOK
BECMG 0608/0610 VRB05KT
BECMG 0610/0612 28012KT

Example: see airport list